Observations for PISA CIV IT-AFB, Italy (LIRP)

LIRP 141015Z 10013KT CAVOK 14/09 Q1007 NOSIG
LIRP 140945Z 11012KT CAVOK 13/09 Q1007 NOSIG
LIRP 140915Z 12011KT CAVOK 12/09 Q1007 NOSIG
LIRP 140845Z 13008KT CAVOK 11/09 Q1007 NOSIG
LIRP 140815Z 15003KT 110V200 CAVOK 09/09 Q1007 NOSIG
LIRP 140745Z 10007KT CAVOK 07/07 Q1007 NOSIG
LIRP 140715Z 09007KT CAVOK 06/06 Q1007 NOSIG
LIRP 140645Z 15007KT CAVOK 05/05 Q1006 NOSIG
LIRP 140615Z 09002KT CAVOK 06/06 Q1006 NOSIG
LIRP 140545Z 11007KT CAVOK 06/06 Q1006 NOSIG
LIRP 140515Z 12008KT CAVOK 06/06 Q1006 NOSIG
LIRP 140445Z 14005KT CAVOK 05/05 Q1006 NOSIG
LIRP 140415Z 16002KT CAVOK 06/06 Q1006 NOSIG
LIRP 140345Z 12006KT CAVOK 06/06 Q1006 TEMPO 5000 BR
LIRP 140315Z 10004KT CAVOK 07/07 Q1006 TEMPO 5000 BR
LIRP 140245Z 08003KT CAVOK 07/07 Q1006 TEMPO 5000 BR
LIRP 140215Z 09003KT CAVOK 08/08 Q1006 TEMPO 5000 BR
LIRP 140145Z 13007KT CAVOK 08/08 Q1006 TEMPO 5000 BR
LIRP 140115Z 16004KT CAVOK 08/08 Q1006 TEMPO 5000 BR
LIRP 140045Z 06003KT CAVOK 07/07 Q1006 TEMPO 5000 BR
LIRP 140015Z 14005KT CAVOK 07/07 Q1006 TEMPO 5000 BR
LIRP 132345Z 15006KT 9000 NSC 07/07 Q1006 TEMPO 5000 BR 
LIRP 132315Z 21002KT 9000 NSC 07/07 Q1005 TEMPO 5000 BR 
LIRP 132245Z 14005KT 8000 NSC 08/08 Q1005 TEMPO 5000 BR 
LIRP 132215Z 14003KT 8000 NSC 08/08 Q1005 TEMPO 5000 BR 
LIRP 132145Z 15005KT CAVOK 08/08 Q1005 TEMPO 5000 BR
LIRP 132115Z 15004KT 8000 NSC 08/08 Q1005 TEMPO 5000 BR 
LIRP 132045Z 21001KT CAVOK 09/09 Q1004 NOSIG
LIRP 132015Z 11002KT CAVOK 09/09 Q1004 NOSIG
LIRP 131945Z 08003KT CAVOK 09/09 Q1004 NOSIG
LIRP 131915Z 16005KT CAVOK 09/09 Q1004 NOSIG
LIRP 131845Z VRB01KT 9999 FEW040 10/09 Q1003 NOSIG  
LIRP 131815Z 06002KT 9999 FEW040 11/10 Q1003 NOSIG  
LIRP 131745Z 06004KT 9999 SCT040 11/10 Q1003 NOSIG  
LIRP 131715Z 08005KT 9999 SCT040 12/10 Q1002 NOSIG  
LIRP 131645Z 07005KT 9999 SCT040 12/10 Q1002 NOSIG  
LIRP 131615Z 12005KT 9999 SCT040 13/11 Q1001 NOSIG  
LIRP 131545Z 13002KT 9999 SCT040 13/10 Q1001 NOSIG  
LIRP 131515Z VRB02KT 9999 SCT040 14/09 Q1001 NOSIG  
LIRP 131445Z 24003KT 9999 SCT040 15/09 Q1000 NOSIG  
LIRP 131415Z VRB03KT 9999 SCT040 15/09 Q1000 NOSIG  
LIRP 131345Z 24005KT 9999 SCT040 15/09 Q1000 NOSIG  
LIRP 131315Z 24005KT 9999 FEW040 15/08 Q1000 NOSIG  
LIRP 131245Z 25008KT 9999 FEW040 15/09 Q0999 NOSIG  
LIRP 131215Z 25005KT 9999 SCT040 15/07 Q0999 NOSIG  
LIRP 131145Z 05004KT 9999 SCT040 14/08 Q0999 NOSIG  
LIRP 131115Z 01006KT 9999 SCT030 13/08 Q0999 NOSIG  
LIRP 131045Z 34010KT 9999 FEW020TCU BKN030 11/08 Q0998 NOSIG
LIRP 131015Z 35012KT 9999 FEW020CB BKN030 14/12 Q0998 TEMPO 35015G25KT  
LIRP 130945Z 12003KT 9999 VCTS FEW025CB SCT030 13/13 Q0998 NOSIG